sensor_id;sensor_type;location;lat;lon;timestamp;P1;durP1;ratioP1;P2;durP2;ratioP2
22565;SDS011;11449;51.330;19.378;2023-03-01T00:01:35;335.80;;;100.60;;
22565;SDS011;11449;51.330;19.378;2023-03-01T00:06:43;304.70;;;94.90;;
22565;SDS011;11449;51.330;19.378;2023-03-01T00:11:53;313.80;;;91.10;;
22565;SDS011;11449;51.330;19.378;2023-03-01T00:17:04;287.30;;;85.70;;
22565;SDS011;11449;51.330;19.378;2023-03-01T00:27:29;312.00;;;97.70;;
22565;SDS011;11449;51.330;19.378;2023-03-01T00:32:58;339.00;;;103.40;;
22565;SDS011;11449;51.330;19.378;2023-03-01T00:38:11;351.20;;;109.40;;
22565;SDS011;11449;51.330;19.378;2023-03-01T00:44:00;366.80;;;106.10;;
22565;SDS011;11449;51.330;19.378;2023-03-01T00:49:29;332.10;;;102.30;;
22565;SDS011;11449;51.330;19.378;2023-03-01T00:54:52;305.30;;;97.10;;
22565;SDS011;11449;51.330;19.378;2023-03-01T01:00:25;341.20;;;102.20;;
22565;SDS011;11449;51.330;19.378;2023-03-01T01:05:44;343.80;;;101.10;;
22565;SDS011;11449;51.330;19.378;2023-03-01T01:45:36;271.70;;;78.30;;
22565;SDS011;11449;51.330;19.378;2023-03-01T01:51:25;188.50;;;58.90;;
22565;SDS011;11449;51.330;19.378;2023-03-01T02:02:41;176.50;;;53.10;;
22565;SDS011;11449;51.330;19.378;2023-03-01T02:14:14;181.30;;;55.80;;
22565;SDS011;11449;51.330;19.378;2023-03-01T02:38:19;216.60;;;68.70;;
22565;SDS011;11449;51.330;19.378;2023-03-01T02:44:18;221.90;;;64.00;;
22565;SDS011;11449;51.330;19.378;2023-03-01T02:55:30;144.80;;;43.40;;
22565;SDS011;11449;51.330;19.378;2023-03-01T03:00:52;141.70;;;45.20;;
22565;SDS011;11449;51.330;19.378;2023-03-01T03:05:58;167.00;;;52.70;;
22565;SDS011;11449;51.330;19.378;2023-03-01T03:11:01;173.20;;;53.20;;
22565;SDS011;11449;51.330;19.378;2023-03-01T03:16:09;211.00;;;62.40;;
22565;SDS011;11449;51.330;19.378;2023-03-01T03:21:31;196.40;;;63.70;;
22565;SDS011;11449;51.330;19.378;2023-03-01T03:32:18;237.80;;;83.00;;
22565;SDS011;11449;51.330;19.378;2023-03-01T03:50:04;188.20;;;52.50;;
22565;SDS011;11449;51.330;19.378;2023-03-01T03:55:19;179.40;;;53.70;;
22565;SDS011;11449;51.330;19.378;2023-03-01T04:00:55;230.30;;;59.70;;
22565;SDS011;11449;51.330;19.378;2023-03-01T04:11:48;182.60;;;52.80;;
22565;SDS011;11449;51.330;19.378;2023-03-01T04:17:20;161.70;;;47.80;;
22565;SDS011;11449;51.330;19.378;2023-03-01T04:23:06;149.20;;;47.00;;
22565;SDS011;11449;51.330;19.378;2023-03-01T04:28:31;174.20;;;46.80;;
22565;SDS011;11449;51.330;19.378;2023-03-01T04:33:56;172.80;;;46.30;;
22565;SDS011;11449;51.330;19.378;2023-03-01T04:39:30;165.40;;;44.20;;
22565;SDS011;11449;51.330;19.378;2023-03-01T04:45:06;155.40;;;42.90;;
22565;SDS011;11449;51.330;19.378;2023-03-01T04:50:45;230.60;;;55.60;;
22565;SDS011;11449;51.330;19.378;2023-03-01T04:56:02;136.70;;;39.90;;
22565;SDS011;11449;51.330;19.378;2023-03-01T05:01:17;155.50;;;42.90;;
22565;SDS011;11449;51.330;19.378;2023-03-01T05:06:26;152.80;;;42.30;;
22565;SDS011;11449;51.330;19.378;2023-03-01T05:12:00;134.10;;;41.20;;
22565;SDS011;11449;51.330;19.378;2023-03-01T05:17:08;120.80;;;40.10;;
22565;SDS011;11449;51.330;19.378;2023-03-01T05:22:19;160.50;;;53.60;;
22565;SDS011;11449;51.330;19.378;2023-03-01T05:27:42;142.20;;;46.60;;
22565;SDS011;11449;51.330;19.378;2023-03-01T05:33:11;170.90;;;54.30;;
22565;SDS011;11449;51.330;19.378;2023-03-01T05:45:03;156.60;;;50.30;;
22565;SDS011;11449;51.330;19.378;2023-03-01T05:51:24;177.30;;;58.40;;
22565;SDS011;11449;51.330;19.378;2023-03-01T06:08:23;158.40;;;53.00;;
22565;SDS011;11449;51.330;19.378;2023-03-01T06:20:04;174.10;;;55.60;;
22565;SDS011;11449;51.330;19.378;2023-03-01T06:25:40;183.00;;;51.50;;
22565;SDS011;11449;51.330;19.378;2023-03-01T06:37:05;150.60;;;49.80;;
22565;SDS011;11449;51.330;19.378;2023-03-01T06:54:26;193.90;;;56.30;;
22565;SDS011;11449;51.330;19.378;2023-03-01T06:59:59;173.80;;;48.50;;
22565;SDS011;11449;51.330;19.378;2023-03-01T07:05:13;201.40;;;52.80;;
22565;SDS011;11449;51.330;19.378;2023-03-01T07:10:32;181.40;;;47.20;;
22565;SDS011;11449;51.330;19.378;2023-03-01T07:15:45;180.50;;;51.70;;
22565;SDS011;11449;51.330;19.378;2023-03-01T07:20:53;188.90;;;54.00;;
22565;SDS011;11449;51.330;19.378;2023-03-01T07:26:04;173.10;;;47.20;;
22565;SDS011;11449;51.330;19.378;2023-03-01T07:31:23;170.40;;;48.90;;
22565;SDS011;11449;51.330;19.378;2023-03-01T07:36:30;137.50;;;45.30;;
22565;SDS011;11449;51.330;19.378;2023-03-01T07:41:38;138.40;;;46.70;;
22565;SDS011;11449;51.330;19.378;2023-03-01T07:52:22;134.00;;;43.80;;
22565;SDS011;11449;51.330;19.378;2023-03-01T07:57:33;111.30;;;37.40;;
22565;SDS011;11449;51.330;19.378;2023-03-01T08:02:41;123.00;;;39.60;;
22565;SDS011;11449;51.330;19.378;2023-03-01T08:07:49;98.10;;;36.80;;
22565;SDS011;11449;51.330;19.378;2023-03-01T08:12:57;86.50;;;25.10;;
22565;SDS011;11449;51.330;19.378;2023-03-01T08:18:07;90.30;;;25.20;;
22565;SDS011;11449;51.330;19.378;2023-03-01T08:23:23;130.60;;;35.60;;
22565;SDS011;11449;51.330;19.378;2023-03-01T08:28:45;89.50;;;23.60;;
22565;SDS011;11449;51.330;19.378;2023-03-01T08:33:54;90.20;;;23.30;;
22565;SDS011;11449;51.330;19.378;2023-03-01T08:50:39;98.80;;;29.80;;
22565;SDS011;11449;51.330;19.378;2023-03-01T08:56:07;85.10;;;22.00;;
22565;SDS011;11449;51.330;19.378;2023-03-01T09:07:24;71.20;;;22.10;;
22565;SDS011;11449;51.330;19.378;2023-03-01T09:13:24;71.70;;;24.20;;
22565;SDS011;11449;51.330;19.378;2023-03-01T09:18:56;87.80;;;23.20;;
22565;SDS011;11449;51.330;19.378;2023-03-01T09:24:04;65.90;;;20.70;;
22565;SDS011;11449;51.330;19.378;2023-03-01T09:29:15;83.70;;;22.70;;
22565;SDS011;11449;51.330;19.378;2023-03-01T09:34:24;76.90;;;23.00;;
22565;SDS011;11449;51.330;19.378;2023-03-01T09:39:34;104.70;;;26.00;;
22565;SDS011;11449;51.330;19.378;2023-03-01T09:44:48;79.90;;;20.50;;
22565;SDS011;11449;51.330;19.378;2023-03-01T09:50:00;94.80;;;22.40;;
22565;SDS011;11449;51.330;19.378;2023-03-01T10:05:57;69.30;;;19.10;;
22565;SDS011;11449;51.330;19.378;2023-03-01T10:11:20;77.60;;;20.20;;
22565;SDS011;11449;51.330;19.378;2023-03-01T10:16:33;73.20;;;20.00;;
22565;SDS011;11449;51.330;19.378;2023-03-01T10:22:00;56.10;;;15.30;;
22565;SDS011;11449;51.330;19.378;2023-03-01T10:38:52;25.40;;;14.10;;
22565;SDS011;11449;51.330;19.378;2023-03-01T10:44:04;19.30;;;11.70;;
22565;SDS011;11449;51.330;19.378;2023-03-01T10:59:51;22.30;;;13.30;;
22565;SDS011;11449;51.330;19.378;2023-03-01T11:10:59;26.90;;;15.20;;
22565;SDS011;11449;51.330;19.378;2023-03-01T11:16:24;39.50;;;20.10;;
22565;SDS011;11449;51.330;19.378;2023-03-01T11:27:04;30.30;;;17.50;;
22565;SDS011;11449;51.330;19.378;2023-03-01T11:44:16;30.00;;;18.10;;
22565;SDS011;11449;51.330;19.378;2023-03-01T12:00:12;28.40;;;17.00;;
22565;SDS011;11449;51.330;19.378;2023-03-01T12:48:59;19.70;;;11.90;;
22565;SDS011;11449;51.330;19.378;2023-03-01T13:00:05;24.60;;;13.30;;
22565;SDS011;11449;51.330;19.378;2023-03-01T13:05:29;24.10;;;14.30;;
22565;SDS011;11449;51.330;19.378;2023-03-01T13:11:11;43.20;;;15.40;;
22565;SDS011;11449;51.330;19.378;2023-03-01T13:16:42;51.30;;;13.90;;
22565;SDS011;11449;51.330;19.378;2023-03-01T13:22:00;52.00;;;14.00;;
22565;SDS011;11449;51.330;19.378;2023-03-01T13:27:41;66.60;;;16.30;;
22565;SDS011;11449;51.330;19.378;2023-03-01T13:32:54;61.00;;;14.90;;
22565;SDS011;11449;51.330;19.378;2023-03-01T13:39:00;24.60;;;12.70;;
22565;SDS011;11449;51.330;19.378;2023-03-01T14:00:33;24.00;;;14.70;;
22565;SDS011;11449;51.330;19.378;2023-03-01T14:06:06;27.80;;;15.60;;
22565;SDS011;11449;51.330;19.378;2023-03-01T14:22:24;78.30;;;19.30;;
22565;SDS011;11449;51.330;19.378;2023-03-01T14:27:36;66.30;;;17.00;;
22565;SDS011;11449;51.330;19.378;2023-03-01T14:38:21;83.30;;;19.10;;
22565;SDS011;11449;51.330;19.378;2023-03-01T14:43:30;67.50;;;17.00;;
22565;SDS011;11449;51.330;19.378;2023-03-01T14:48:41;71.70;;;19.10;;
22565;SDS011;11449;51.330;19.378;2023-03-01T14:53:48;78.90;;;20.10;;
22565;SDS011;11449;51.330;19.378;2023-03-01T14:59:07;60.50;;;17.00;;
22565;SDS011;11449;51.330;19.378;2023-03-01T15:04:12;54.80;;;16.40;;
22565;SDS011;11449;51.330;19.378;2023-03-01T15:09:25;84.10;;;19.80;;
22565;SDS011;11449;51.330;19.378;2023-03-01T15:14:40;77.70;;;19.00;;
22565;SDS011;11449;51.330;19.378;2023-03-01T15:20:18;86.20;;;26.80;;
22565;SDS011;11449;51.330;19.378;2023-03-01T15:31:03;89.60;;;20.10;;
22565;SDS011;11449;51.330;19.378;2023-03-01T15:41:46;108.80;;;33.00;;
22565;SDS011;11449;51.330;19.378;2023-03-01T15:52:52;560.60;;;156.90;;
22565;SDS011;11449;51.330;19.378;2023-03-01T15:58:12;307.40;;;88.90;;
22565;SDS011;11449;51.330;19.378;2023-03-01T16:03:27;158.70;;;43.90;;
22565;SDS011;11449;51.330;19.378;2023-03-01T16:08:39;137.20;;;39.30;;
22565;SDS011;11449;51.330;19.378;2023-03-01T16:13:50;80.40;;;23.90;;
22565;SDS011;11449;51.330;19.378;2023-03-01T16:18:58;140.90;;;42.90;;
22565;SDS011;11449;51.330;19.378;2023-03-01T16:29:24;152.50;;;43.70;;
22565;SDS011;11449;51.330;19.378;2023-03-01T16:34:35;122.80;;;38.60;;
22565;SDS011;11449;51.330;19.378;2023-03-01T16:39:38;137.30;;;38.10;;
22565;SDS011;11449;51.330;19.378;2023-03-01T16:44:44;143.60;;;37.10;;
22565;SDS011;11449;51.330;19.378;2023-03-01T16:55:34;155.70;;;38.70;;
22565;SDS011;11449;51.330;19.378;2023-03-01T17:06:16;180.00;;;38.90;;
22565;SDS011;11449;51.330;19.378;2023-03-01T17:11:21;153.10;;;38.10;;
22565;SDS011;11449;51.330;19.378;2023-03-01T17:17:00;167.20;;;35.70;;
22565;SDS011;11449;51.330;19.378;2023-03-01T17:22:10;154.30;;;35.50;;
22565;SDS011;11449;51.330;19.378;2023-03-01T17:32:43;162.10;;;37.20;;
22565;SDS011;11449;51.330;19.378;2023-03-01T17:37:51;148.90;;;37.30;;
22565;SDS011;11449;51.330;19.378;2023-03-01T17:42:54;162.00;;;39.90;;
22565;SDS011;11449;51.330;19.378;2023-03-01T17:48:03;146.70;;;37.90;;
22565;SDS011;11449;51.330;19.378;2023-03-01T17:53:32;129.80;;;39.60;;
22565;SDS011;11449;51.330;19.378;2023-03-01T17:58:37;165.80;;;47.40;;
22565;SDS011;11449;51.330;19.378;2023-03-01T18:03:42;171.60;;;48.10;;
22565;SDS011;11449;51.330;19.378;2023-03-01T18:08:54;212.70;;;56.80;;
22565;SDS011;11449;51.330;19.378;2023-03-01T18:14:03;212.30;;;53.80;;
22565;SDS011;11449;51.330;19.378;2023-03-01T18:19:31;176.80;;;46.80;;
22565;SDS011;11449;51.330;19.378;2023-03-01T18:24:38;159.50;;;40.40;;
22565;SDS011;11449;51.330;19.378;2023-03-01T18:29:41;125.70;;;37.10;;
22565;SDS011;11449;51.330;19.378;2023-03-01T18:41:12;108.10;;;32.50;;
22565;SDS011;11449;51.330;19.378;2023-03-01T18:51:45;165.20;;;44.50;;
22565;SDS011;11449;51.330;19.378;2023-03-01T18:56:53;124.70;;;36.50;;
22565;SDS011;11449;51.330;19.378;2023-03-01T19:02:00;157.10;;;46.90;;
22565;SDS011;11449;51.330;19.378;2023-03-01T19:07:08;194.70;;;59.70;;
22565;SDS011;11449;51.330;19.378;2023-03-01T19:12:23;188.60;;;54.70;;
22565;SDS011;11449;51.330;19.378;2023-03-01T19:17:32;160.30;;;41.70;;
22565;SDS011;11449;51.330;19.378;2023-03-01T19:28:13;123.10;;;35.90;;
22565;SDS011;11449;51.330;19.378;2023-03-01T19:33:26;117.30;;;34.30;;
22565;SDS011;11449;51.330;19.378;2023-03-01T19:38:34;144.20;;;39.20;;
22565;SDS011;11449;51.330;19.378;2023-03-01T19:43:46;251.70;;;47.70;;
22565;SDS011;11449;51.330;19.378;2023-03-01T19:49:10;145.20;;;38.70;;
22565;SDS011;11449;51.330;19.378;2023-03-01T19:54:17;150.20;;;39.60;;
22565;SDS011;11449;51.330;19.378;2023-03-01T19:59:24;151.50;;;39.50;;
22565;SDS011;11449;51.330;19.378;2023-03-01T20:04:34;148.60;;;45.50;;
22565;SDS011;11449;51.330;19.378;2023-03-01T20:09:41;133.20;;;39.00;;
22565;SDS011;11449;51.330;19.378;2023-03-01T20:15:02;106.10;;;29.50;;
22565;SDS011;11449;51.330;19.378;2023-03-01T20:20:14;124.00;;;32.00;;
22565;SDS011;11449;51.330;19.378;2023-03-01T20:25:27;105.60;;;28.40;;
22565;SDS011;11449;51.330;19.378;2023-03-01T20:30:33;128.30;;;36.90;;
22565;SDS011;11449;51.330;19.378;2023-03-01T20:35:44;135.80;;;36.70;;
22565;SDS011;11449;51.330;19.378;2023-03-01T20:41:01;121.20;;;34.30;;
22565;SDS011;11449;51.330;19.378;2023-03-01T20:46:22;116.20;;;30.60;;
22565;SDS011;11449;51.330;19.378;2023-03-01T20:51:38;117.80;;;34.40;;
22565;SDS011;11449;51.330;19.378;2023-03-01T20:56:52;121.00;;;32.50;;
22565;SDS011;11449;51.330;19.378;2023-03-01T21:02:13;118.70;;;35.00;;
22565;SDS011;11449;51.330;19.378;2023-03-01T21:07:42;134.10;;;39.80;;
22565;SDS011;11449;51.330;19.378;2023-03-01T21:12:48;150.80;;;45.60;;
22565;SDS011;11449;51.330;19.378;2023-03-01T21:18:06;189.70;;;55.60;;
22565;SDS011;11449;51.330;19.378;2023-03-01T21:23:25;194.00;;;58.00;;
22565;SDS011;11449;51.330;19.378;2023-03-01T21:28:38;203.50;;;58.80;;
22565;SDS011;11449;51.330;19.378;2023-03-01T21:33:59;210.40;;;59.90;;
22565;SDS011;11449;51.330;19.378;2023-03-01T21:39:16;166.20;;;52.00;;
22565;SDS011;11449;51.330;19.378;2023-03-01T21:44:48;178.10;;;42.10;;
22565;SDS011;11449;51.330;19.378;2023-03-01T21:50:11;189.70;;;45.10;;
22565;SDS011;11449;51.330;19.378;2023-03-01T21:55:23;174.60;;;37.20;;
22565;SDS011;11449;51.330;19.378;2023-03-01T22:00:34;133.60;;;35.00;;
22565;SDS011;11449;51.330;19.378;2023-03-01T22:05:54;143.90;;;35.00;;
22565;SDS011;11449;51.330;19.378;2023-03-01T22:11:29;228.10;;;57.80;;
22565;SDS011;11449;51.330;19.378;2023-03-01T22:16:37;173.00;;;46.30;;
22565;SDS011;11449;51.330;19.378;2023-03-01T22:22:05;144.00;;;39.90;;
22565;SDS011;11449;51.330;19.378;2023-03-01T22:33:12;167.40;;;37.30;;
22565;SDS011;11449;51.330;19.378;2023-03-01T22:38:22;199.20;;;45.40;;
22565;SDS011;11449;51.330;19.378;2023-03-01T22:54:27;139.80;;;38.50;;
22565;SDS011;11449;51.330;19.378;2023-03-01T23:00:00;139.90;;;36.60;;
22565;SDS011;11449;51.330;19.378;2023-03-01T23:05:09;178.60;;;37.60;;
22565;SDS011;11449;51.330;19.378;2023-03-01T23:10:17;190.00;;;44.70;;
22565;SDS011;11449;51.330;19.378;2023-03-01T23:15:54;149.00;;;40.60;;
22565;SDS011;11449;51.330;19.378;2023-03-01T23:21:37;162.30;;;40.90;;
22565;SDS011;11449;51.330;19.378;2023-03-01T23:26:41;194.00;;;50.70;;
22565;SDS011;11449;51.330;19.378;2023-03-01T23:43:11;152.50;;;38.40;;
22565;SDS011;11449;51.330;19.378;2023-03-01T23:48:48;139.80;;;32.80;;
22565;SDS011;11449;51.330;19.378;2023-03-01T23:54:26;135.80;;;35.50;;
